Time;durP1;ratioP1;P1;durP2;ratioP2;P2;SDS_P1;SDS_P2;PMS_P1;PMS_P2;Temp;Humidity;BMP_temperature;BMP_pressure;BME280_temperature;BME280_humidity;BME280_pressure;Samples;Min_cycle;Max_cycle;Signal;HPM_P1;HPM_P2
2023/04/01 00:00:59;;;;;;;3.17;1.33;;;11.00;99.90;;;;;;4978781;28;20015;-84
2023/04/01 00:03:26;;;;;;;7.05;1.20;;;11.00;99.90;;;;;;4969556;28;20030;-84
2023/04/01 00:05:53;;;;;;;2.85;0.98;;;11.00;99.90;;;;;;4961238;28;20153;-85
2023/04/01 00:08:19;;;;;;;5.57;1.20;;;11.00;99.90;;;;;;4983288;28;20033;-85
2023/04/01 00:10:45;;;;;;;3.95;1.15;;;10.90;99.90;;;;;;4984427;28;20525;-85
2023/04/01 00:15:55;;;;;;;6.15;1.48;;;11.00;99.90;;;;;;5026857;23;20054;-84
2023/04/01 00:18:21;;;;;;;2.45;1.00;;;11.00;99.90;;;;;;4966385;28;20031;-84
2023/04/01 00:20:49;;;;;;;1.27;0.80;;;11.00;99.90;;;;;;4986169;28;20040;-86
2023/04/01 00:23:15;;;;;;;3.83;0.90;;;10.90;99.90;;;;;;4979327;28;20033;-85
2023/04/01 00:25:41;;;;;;;3.40;1.00;;;11.00;99.90;;;;;;4984185;28;20597;-88
2023/04/01 00:30:37;;;;;;;5.13;1.25;;;10.90;99.90;;;;;;4932441;28;20071;-86
2023/04/01 00:33:03;;;;;;;3.13;1.17;;;11.00;99.90;;;;;;4933822;28;20019;-85
2023/04/01 00:35:29;;;;;;;2.05;0.70;;;10.90;99.90;;;;;;4935364;28;20042;-82
2023/04/01 00:37:55;;;;;;;3.47;0.95;;;10.90;99.90;;;;;;4933024;28;20027;-81
2023/04/01 00:40:30;;;;;;;3.00;0.88;;;10.90;99.90;;;;;;4937660;28;20027;-85
2023/04/01 00:42:56;;;;;;;4.07;1.00;;;11.00;99.90;;;;;;4924583;29;20027;-82
2023/04/01 00:45:37;;;;;;;4.57;1.05;;;11.00;99.90;;;;;;4936064;28;20031;-81
2023/04/01 00:48:11;;;;;;;2.58;0.70;;;11.00;99.90;;;;;;4935441;28;20099;-83
2023/04/01 00:50:39;;;;;;;2.65;1.00;;;11.00;99.90;;;;;;4944416;28;20137;-81
2023/04/01 00:53:06;;;;;;;1.38;0.70;;;10.90;99.90;;;;;;4941071;28;20396;-80
2023/04/01 00:55:36;;;;;;;5.18;0.82;;;10.90;99.90;;;;;;4937924;28;20062;-82
2023/04/01 00:58:05;;;;;;;3.80;0.90;;;10.90;99.90;;;;;;4921219;29;20027;-83
2023/04/01 01:00:32;;;;;;;4.38;1.50;;;10.90;99.90;;;;;;4938103;28;20628;-83
2023/04/01 01:02:57;;;;;;;2.38;0.98;;;10.80;99.90;;;;;;4936098;28;20152;-80
2023/04/01 01:05:39;;;;;;;3.33;1.10;;;10.80;99.90;;;;;;4939121;28;20072;-83
2023/04/01 01:08:21;;;;;;;3.55;0.90;;;10.80;99.90;;;;;;4938876;28;20101;-86
2023/04/01 01:10:49;;;;;;;3.30;1.45;;;10.80;99.90;;;;;;4924483;28;20034;-86
2023/04/01 01:13:37;;;;;;;1.42;1.00;;;10.80;99.90;;;;;;4929099;29;20015;-84
2023/04/01 01:16:17;;;;;;;2.63;1.00;;;10.80;99.90;;;;;;4940559;28;20039;-85
2023/04/01 01:18:55;;;;;;;2.15;1.02;;;10.70;99.90;;;;;;4938786;28;20020;-85
2023/04/01 01:21:39;;;;;;;5.68;1.10;;;10.70;99.90;;;;;;4948189;28;20034;-86
2023/04/01 01:24:27;;;;;;;1.65;0.95;;;10.70;99.90;;;;;;4952554;28;20024;-87
2023/04/01 01:26:58;;;;;;;1.13;0.90;;;10.70;99.90;;;;;;4948833;28;20031;-85
2023/04/01 01:29:46;;;;;;;1.15;0.95;;;10.70;99.90;;;;;;4953033;28;20027;-86
2023/04/01 01:32:36;;;;;;;2.20;0.90;;;10.70;99.90;;;;;;4951560;28;20038;-85
2023/04/01 01:35:17;;;;;;;1.60;0.90;;;10.70;99.90;;;;;;4940865;28;20043;-87
2023/04/01 01:37:45;;;;;;;1.50;1.05;;;10.70;99.90;;;;;;4941069;28;20114;-85
2023/04/01 01:40:13;;;;;;;1.00;0.90;;;10.70;99.90;;;;;;4923554;28;20028;-85
2023/04/01 01:42:46;;;;;;;1.05;0.90;;;10.70;99.90;;;;;;4919488;29;20059;-87
2023/04/01 01:45:12;;;;;;;;;;;10.70;99.90;;;;;;4934132;28;20487;-83
2023/04/01 01:47:40;;;;;;;1.75;0.80;;;10.70;99.90;;;;;;4916239;29;20370;-83
2023/04/01 01:50:08;;;;;;;3.00;1.25;;;10.70;99.90;;;;;;4937676;28;20027;-85
2023/04/01 01:52:33;;;;;;;1.05;0.90;;;10.70;99.90;;;;;;4936049;28;20122;-84
2023/04/01 01:55:01;;;;;;;2.47;0.90;;;10.70;99.90;;;;;;4921688;29;20162;-84
2023/04/01 01:57:33;;;;;;;2.65;1.40;;;10.70;99.90;;;;;;4932414;28;20530;-83
2023/04/01 02:00:12;;;;;;;4.05;1.00;;;10.80;99.90;;;;;;4935237;28;20031;-83
2023/04/01 02:02:40;;;;;;;1.27;1.00;;;10.70;99.90;;;;;;4936798;28;20023;-83
2023/04/01 02:05:10;;;;;;;2.58;1.08;;;10.80;99.90;;;;;;4937065;28;20030;-90
2023/04/01 02:07:37;;;;;;;2.25;1.20;;;10.80;99.90;;;;;;4939358;28;20441;-83
2023/04/01 02:10:04;;;;;;;1.13;0.90;;;10.80;99.90;;;;;;4928728;29;20012;-83
2023/04/01 02:12:30;;;;;;;3.05;1.20;;;10.80;99.90;;;;;;4941452;28;20239;-83
2023/04/01 02:15:09;;;;;;;1.48;0.98;;;10.80;99.90;;;;;;4938767;28;20015;-84
2023/04/01 02:17:42;;;;;;;2.95;1.00;;;10.80;99.90;;;;;;4937347;28;20118;-84
2023/04/01 02:20:15;;;;;;;7.80;1.33;;;10.90;99.90;;;;;;4922654;28;20439;-84
2023/04/01 02:22:46;;;;;;;1.95;1.08;;;10.90;99.90;;;;;;4929043;29;20119;-84
2023/04/01 02:25:15;;;;;;;2.25;0.82;;;10.90;99.90;;;;;;4939279;28;20027;-84
2023/04/01 02:27:44;;;;;;;1.50;1.00;;;10.80;99.90;;;;;;4920844;29;20480;-90
2023/04/01 02:30:11;;;;;;;1.60;1.10;;;10.80;99.90;;;;;;4922447;28;20035;-83
2023/04/01 02:32:38;;;;;;;2.28;0.88;;;10.90;99.90;;;;;;4938245;28;20178;-83
2023/04/01 02:35:10;;;;;;;2.38;1.20;;;10.90;99.90;;;;;;4940006;28;20035;-83
2023/04/01 02:37:38;;;;;;;1.38;0.88;;;10.90;99.90;;;;;;4945376;28;20050;-83
2023/04/01 02:40:10;;;;;;;2.88;1.10;;;10.90;99.90;;;;;;4928977;29;20031;-83
2023/04/01 02:42:36;;;;;;;1.30;1.10;;;10.90;99.90;;;;;;4935690;28;20077;-83
2023/04/01 02:45:03;;;;;;;3.08;1.13;;;10.90;99.90;;;;;;4942081;28;20114;-82
2023/04/01 02:47:29;;;;;;;3.10;1.50;;;10.80;99.90;;;;;;4945229;28;20027;-82
2023/04/01 02:49:58;;;;;;;4.93;1.42;;;10.70;99.90;;;;;;4940847;28;20506;-83
2023/04/01 02:52:24;;;;;;;1.15;1.15;;;10.80;99.90;;;;;;4940485;28;20029;-83
2023/04/01 02:54:50;;;;;;;1.77;1.17;;;10.80;99.90;;;;;;4937724;28;20155;-82
2023/04/01 02:57:16;;;;;;;0.90;0.90;;;10.70;99.90;;;;;;4935842;28;20539;-85
2023/04/01 02:59:41;;;;;;;3.63;1.20;;;10.70;99.90;;;;;;4938507;28;20114;-86
2023/04/01 03:02:07;;;;;;;1.17;1.05;;;10.70;99.90;;;;;;4936182;28;20067;-83
2023/04/01 03:07:08;;;;;;;1.27;1.17;;;10.70;99.90;;;;;;4955961;28;21327;-82
2023/04/01 03:09:34;;;;;;;1.00;1.00;;;10.80;99.90;;;;;;4947265;28;20427;-83
2023/04/01 03:11:59;;;;;;;1.30;1.05;;;10.80;99.90;;;;;;4946498;28;20086;-82
2023/04/01 03:14:25;;;;;;;1.40;1.10;;;10.70;99.90;;;;;;4945643;28;20687;-85
2023/04/01 03:16:51;;;;;;;1.42;1.33;;;10.70;99.90;;;;;;5069791;23;20146;-82
2023/04/01 03:19:17;;;;;;;1.23;1.13;;;10.70;99.90;;;;;;4935498;28;20035;-82
2023/04/01 03:21:42;;;;;;;2.25;1.30;;;10.70;99.90;;;;;;4961232;28;20027;-84
2023/04/01 03:24:08;;;;;;;1.60;1.50;;;10.60;99.90;;;;;;4946985;28;20054;-83
2023/04/01 03:26:36;;;;;;;2.15;1.90;;;10.70;99.90;;;;;;4926839;29;20038;-82
2023/04/01 03:29:01;;;;;;;1.80;1.70;;;10.60;99.90;;;;;;4938073;28;20098;-84
2023/04/01 03:31:27;;;;;;;1.83;1.67;;;10.60;99.90;;;;;;4926051;28;20480;-83
2023/04/01 03:33:55;;;;;;;2.88;1.48;;;10.70;99.90;;;;;;4941442;28;20433;-83
2023/04/01 03:36:20;;;;;;;1.90;1.80;;;10.60;99.90;;;;;;4914578;28;20179;-84
2023/04/01 03:38:46;;;;;;;2.47;2.28;;;10.60;99.90;;;;;;4928194;28;20114;-84
2023/04/01 03:41:14;;;;;;;2.38;2.17;;;10.70;99.90;;;;;;4925368;28;20039;-83
2023/04/01 03:43:39;;;;;;;1.95;1.83;;;10.70;99.90;;;;;;4926093;28;20019;-83
2023/04/01 03:46:05;;;;;;;2.92;2.05;;;10.70;99.90;;;;;;4944019;28;20557;-85
2023/04/01 03:48:31;;;;;;;2.90;2.15;;;10.70;99.90;;;;;;4931415;28;20031;-83
2023/04/01 03:50:56;;;;;;;2.00;1.90;;;10.70;99.90;;;;;;4927569;29;20155;-85
2023/04/01 03:53:22;;;;;;;2.50;2.25;;;10.70;99.90;;;;;;4945848;28;20020;-82
2023/04/01 03:55:48;;;;;;;2.70;2.50;;;10.70;99.90;;;;;;4928419;29;20035;-85
2023/04/01 03:58:14;;;;;;;3.75;2.22;;;10.60;99.90;;;;;;4941630;28;20034;-86
2023/04/01 04:00:39;;;;;;;2.65;2.45;;;10.70;99.90;;;;;;4928111;28;20024;-85
2023/04/01 04:03:06;;;;;;;2.70;2.50;;;10.70;99.90;;;;;;4926350;29;20027;-83
2023/04/01 04:05:31;;;;;;;2.63;2.42;;;10.70;99.90;;;;;;4943498;28;20035;-83
2023/04/01 04:07:57;;;;;;;3.40;3.10;;;10.80;99.90;;;;;;4918854;29;20484;-84
2023/04/01 04:10:24;;;;;;;2.72;2.53;;;10.70;99.90;;;;;;4943332;28;20484;-83
2023/04/01 04:12:53;;;;;;;3.28;2.97;;;10.70;99.90;;;;;;4925036;28;20031;-84
2023/04/01 04:15:21;;;;;;;3.20;2.97;;;10.70;99.90;;;;;;4940453;28;20035;-84
2023/04/01 04:17:47;;;;;;;3.28;2.83;;;10.80;99.90;;;;;;4937578;28;20034;-83
2023/04/01 04:20:15;;;;;;;3.20;3.00;;;10.80;99.90;;;;;;4935239;28;20032;-84
2023/04/01 04:22:43;;;;;;;4.68;3.20;;;10.80;99.90;;;;;;4940122;28;20114;-84
2023/04/01 04:25:09;;;;;;;3.33;3.13;;;10.80;99.90;;;;;;4941283;28;20173;-84
2023/04/01 04:27:35;;;;;;;3.60;2.95;;;10.80;99.90;;;;;;4941512;28;20019;-85
2023/04/01 04:30:00;;;;;;;4.20;3.15;;;10.70;99.90;;;;;;4927920;28;20031;-85
2023/04/01 04:32:26;;;;;;;3.08;2.85;;;10.80;99.90;;;;;;4925031;28;21099;-85
2023/04/01 04:34:52;;;;;;;4.68;3.28;;;10.70;99.90;;;;;;4938181;28;20023;-84
2023/04/01 04:37:17;;;;;;;3.42;3.13;;;10.70;99.90;;;;;;4936012;28;20468;-84
2023/04/01 04:39:46;;;;;;;3.80;3.50;;;10.70;99.90;;;;;;4936610;28;20020;-85
2023/04/01 04:42:11;;;;;;;3.60;3.30;;;10.70;99.90;;;;;;4956872;28;20034;-85
2023/04/01 04:44:37;;;;;;;3.47;3.25;;;10.70;99.90;;;;;;4947537;28;20434;-84
2023/04/01 04:47:03;;;;;;;4.60;3.55;;;10.70;99.90;;;;;;4927001;28;20382;-84
2023/04/01 04:49:28;;;;;;;2.88;2.67;;;10.80;99.90;;;;;;4941285;28;20038;-85
2023/04/01 04:51:54;;;;;;;4.93;3.72;;;10.70;99.90;;;;;;4942177;28;20023;-84
2023/04/01 04:54:19;;;;;;;3.47;3.13;;;10.70;99.90;;;;;;4938542;28;20020;-84
2023/04/01 04:56:45;;;;;;;3.80;3.50;;;10.80;99.90;;;;;;4936397;28;20400;-83
2023/04/01 04:59:12;;;;;;;6.18;3.70;;;10.70;99.90;;;;;;4923848;29;20469;-84
2023/04/01 05:01:38;;;;;;;3.85;3.55;;;10.80;99.90;;;;;;4935137;28;20373;-84
2023/04/01 05:04:03;;;;;;;4.10;3.80;;;10.80;99.90;;;;;;4915390;28;20064;-84
2023/04/01 05:06:29;;;;;;;4.68;4.28;;;10.80;99.90;;;;;;4924186;28;20436;-82
2023/04/01 05:08:56;;;;;;;5.20;3.90;;;10.80;99.90;;;;;;4942412;28;20134;-84
2023/04/01 05:11:22;;;;;;;4.32;3.92;;;10.80;99.90;;;;;;4943874;28;20082;-83
2023/04/01 05:13:47;;;;;;;4.78;3.90;;;10.80;99.90;;;;;;4926583;29;20115;-83
2023/04/01 05:16:19;;;;;;;4.38;3.97;;;10.80;99.90;;;;;;4936461;28;20103;-85
2023/04/01 05:18:45;;;;;;;4.90;3.97;;;10.70;99.90;;;;;;4925641;28;20098;-85
2023/04/01 05:21:15;;;;;;;4.53;4.13;;;10.60;99.90;;;;;;4940734;28;20023;-85
2023/04/01 05:23:42;;;;;;;5.30;4.20;;;10.60;99.90;;;;;;4934921;28;20024;-82
2023/04/01 05:26:10;;;;;;;5.40;3.97;;;10.60;99.90;;;;;;4935633;28;20436;-84
2023/04/01 05:28:36;;;;;;;4.72;3.90;;;10.70;99.90;;;;;;4937922;28;20019;-83
2023/04/01 05:31:05;;;;;;;4.07;3.78;;;10.70;99.90;;;;;;4922156;28;20027;-84
2023/04/01 05:33:34;;;;;;;4.38;3.97;;;10.70;99.90;;;;;;4935020;28;20027;-84
2023/04/01 05:36:11;;;;;;;4.57;3.72;;;10.70;99.90;;;;;;4936583;28;20120;-83
2023/04/01 05:38:37;;;;;;;4.85;4.15;;;10.80;99.90;;;;;;4939055;28;20019;-85
2023/04/01 05:41:03;;;;;;;4.25;3.85;;;10.80;99.90;;;;;;4922673;28;20443;-83
2023/04/01 05:43:30;;;;;;;4.47;4.07;;;10.70;99.90;;;;;;4933710;28;20031;-83
2023/04/01 05:45:56;;;;;;;5.38;4.25;;;10.70;99.90;;;;;;4935375;28;20024;-83
2023/04/01 05:48:21;;;;;;;5.95;4.57;;;10.70;99.90;;;;;;4932795;28;20502;-83
2023/04/01 05:50:47;;;;;;;5.13;4.22;;;10.70;99.90;;;;;;4933379;28;20024;-83
2023/04/01 05:53:13;;;;;;;4.30;3.90;;;10.70;99.90;;;;;;4924732;28;20284;-83
2023/04/01 05:55:38;;;;;;;4.10;3.70;;;10.80;99.90;;;;;;4937049;28;20066;-82
2023/04/01 05:58:05;;;;;;;4.53;4.10;;;10.70;99.90;;;;;;4935686;28;20122;-84
2023/04/01 06:00:30;;;;;;;4.47;3.95;;;10.80;99.90;;;;;;4922910;28;20043;-82
2023/04/01 06:02:59;;;;;;;4.25;3.85;;;10.80;99.90;;;;;;4939556;28;20160;-83
2023/04/01 06:05:29;;;;;;;4.50;4.10;;;10.70;99.90;;;;;;4922016;28;20138;-83
2023/04/01 06:08:09;;;;;;;4.03;3.35;;;10.70;99.90;;;;;;4934568;28;20028;-83
2023/04/01 06:11:10;;;;;;;3.88;3.58;;;10.70;99.90;;;;;;4940330;28;20034;-85
2023/04/01 06:13:44;;;;;;;3.58;3.28;;;10.80;99.90;;;;;;4939345;28;20024;-86
2023/04/01 06:16:32;;;;;;;4.45;4.05;;;10.80;99.90;;;;;;4927066;29;20046;-86
2023/04/01 06:19:14;;;;;;;3.65;3.33;;;10.70;99.90;;;;;;4941700;28;20035;-85
2023/04/01 06:22:01;;;;;;;4.07;3.70;;;10.70;99.90;;;;;;4926872;28;20046;-83
2023/04/01 06:24:48;;;;;;;4.78;3.33;;;10.60;99.90;;;;;;4914102;28;20123;-83
2023/04/01 06:27:35;;;;;;;4.28;3.88;;;10.70;99.90;;;;;;4935505;28;20027;-85
2023/04/01 06:30:19;;;;;;;4.22;3.83;;;10.70;99.90;;;;;;4915488;29;20031;-85
2023/04/01 06:33:04;;;;;;;4.53;3.78;;;10.70;99.90;;;;;;4938328;28;20031;-84
2023/04/01 06:35:45;;;;;;;5.03;4.25;;;10.80;99.90;;;;;;4936381;28;20053;-84
2023/04/01 06:38:31;;;;;;;4.95;4.45;;;10.70;99.90;;;;;;4940059;28;20027;-86
2023/04/01 06:41:06;;;;;;;4.85;4.45;;;10.80;99.90;;;;;;4937970;28;20039;-83
2023/04/01 06:43:50;;;;;;;4.47;4.05;;;10.80;99.90;;;;;;4936093;28;20118;-85
2023/04/01 06:46:19;;;;;;;4.15;3.78;;;10.80;99.90;;;;;;4942317;28;20090;-84
2023/04/01 06:49:03;;;;;;;4.50;4.10;;;10.80;99.90;;;;;;4937189;28;20027;-85
2023/04/01 06:51:38;;;;;;;5.28;3.72;;;10.80;99.90;;;;;;4937242;28;20027;-85
2023/04/01 06:54:14;;;;;;;3.97;3.67;;;10.70;99.90;;;;;;4943120;28;20042;-84
2023/04/01 06:56:46;;;;;;;6.32;3.70;;;10.80;99.90;;;;;;4947262;28;20047;-83
2023/04/01 06:59:20;;;;;;;3.65;3.35;;;10.70;99.90;;;;;;4938084;28;20024;-85
2023/04/01 07:01:51;;;;;;;4.28;3.40;;;10.80;99.90;;;;;;4937370;28;20102;-86
2023/04/01 07:04:35;;;;;;;4.88;3.70;;;10.80;99.90;;;;;;4920406;28;20035;-83
2023/04/01 07:07:34;;;;;;;3.65;3.35;;;10.80;99.90;;;;;;4927851;29;20456;-83
2023/04/01 07:10:07;;;;;;;3.95;3.10;;;10.80;99.90;;;;;;4924646;29;20036;-83
2023/04/01 07:12:36;;;;;;;;;;;10.90;99.90;;;;;;4927623;28;20471;-83
2023/04/01 07:15:23;;;;;;;3.28;3.05;;;10.80;99.90;;;;;;4920913;28;20510;-84
2023/04/01 07:17:56;;;;;;;3.20;2.90;;;10.90;99.90;;;;;;4931083;29;20039;-83
2023/04/01 07:20:32;;;;;;;3.20;2.90;;;10.90;99.90;;;;;;4939458;28;20031;-83
2023/04/01 07:23:08;;;;;;;4.10;3.70;;;10.90;99.90;;;;;;4944080;29;20035;-84
2023/04/01 07:26:05;;;;;;;3.58;3.20;;;10.80;99.90;;;;;;4937774;28;20070;-83
2023/04/01 07:28:36;;;;;;;3.70;3.00;;;10.80;99.90;;;;;;4922402;28;20106;-83
2023/04/01 07:31:18;;;;;;;3.97;3.30;;;10.80;99.90;;;;;;4935236;28;20139;-84
2023/04/01 07:34:02;;;;;;;4.82;4.22;;;10.90;99.90;;;;;;4919869;28;20579;-84
2023/04/01 07:36:44;;;;;;;5.80;4.15;;;10.90;99.90;;;;;;4921877;29;20050;-86
2023/04/01 07:39:47;;;;;;;5.07;4.40;;;10.90;99.90;;;;;;4937601;28;20083;-85
2023/04/01 07:42:29;;;;;;;7.78;3.85;;;10.90;99.90;;;;;;4936464;28;20082;-83
2023/04/01 07:45:19;;;;;;;5.32;4.10;;;11.00;99.90;;;;;;4936892;28;20027;-86
2023/04/01 07:47:51;;;;;;;6.18;4.57;;;11.00;99.90;;;;;;4939787;28;20050;-83
2023/04/01 07:50:27;;;;;;;7.90;5.45;;;11.00;99.90;;;;;;4941514;28;20063;-81
2023/04/01 07:53:19;;;;;;;6.28;5.43;;;11.00;99.90;;;;;;4951187;28;20075;-81
2023/04/01 07:56:01;;;;;;;7.82;6.25;;;10.90;99.90;;;;;;4949516;28;20487;-84
2023/04/01 07:58:36;;;;;;;9.93;7.37;;;11.00;99.90;;;;;;4943124;28;20498;-84
2023/04/01 08:01:15;;;;;;;10.20;7.60;;;10.90;99.90;;;;;;4922014;29;20522;-83
2023/04/01 08:04:18;;;;;;;10.93;7.88;;;10.90;99.90;;;;;;4937999;28;20485;-83
2023/04/01 08:06:44;;;;;;;14.13;9.13;;;11.00;99.90;;;;;;4942247;28;20022;-83
2023/04/01 08:09:39;;;;;;;16.23;8.77;;;11.10;99.90;;;;;;4936998;28;20110;-84
2023/04/01 08:12:14;;;;;;;226.23;77.65;;;11.10;99.90;;;;;;4925184;29;20150;-81
2023/04/01 08:14:51;;;;;;;12.80;8.73;;;11.10;99.90;;;;;;4926972;29;20087;-83
2023/04/01 08:17:36;;;;;;;13.07;9.20;;;11.10;99.90;;;;;;4940346;28;20488;-85
2023/04/01 08:20:18;;;;;;;13.85;9.50;;;11.10;99.90;;;;;;4938310;28;20039;-84
2023/04/01 08:22:57;;;;;;;12.18;8.68;;;11.10;99.90;;;;;;4936226;28;20027;-82
2023/04/01 08:25:28;;;;;;;13.63;8.82;;;11.20;99.90;;;;;;4924070;28;20090;-84
2023/04/01 08:28:15;;;;;;;17.02;8.80;;;11.20;99.90;;;;;;4920652;28;20038;-82
2023/04/01 08:31:02;;;;;;;20.13;9.80;;;11.30;99.90;;;;;;4938972;28;20118;-85
2023/04/01 08:33:30;;;;;;;17.58;9.38;;;11.30;99.90;;;;;;4938947;28;20031;-82
2023/04/01 08:36:18;;;;;;;13.48;9.15;;;11.30;99.90;;;;;;4937449;28;20050;-82
2023/04/01 08:38:51;;;;;;;14.52;9.18;;;11.30;99.90;;;;;;4928704;28;20499;-86
2023/04/01 08:41:57;;;;;;;15.63;10.43;;;11.30;99.90;;;;;;4940775;28;20035;-84
2023/04/01 08:44:34;;;;;;;12.43;7.65;;;11.40;99.90;;;;;;4923974;28;20036;-85
2023/04/01 08:47:30;;;;;;;16.17;8.90;;;11.30;99.90;;;;;;4922973;29;20126;-87
2023/04/01 08:50:39;;;;;;;13.95;8.50;;;11.40;99.90;;;;;;4935860;28;20424;-85
2023/04/01 08:53:32;;;;;;;14.55;8.68;;;11.40;99.90;;;;;;4940478;28;20116;-83
2023/04/01 08:56:25;;;;;;;12.18;7.78;;;11.50;99.90;;;;;;4947409;28;20127;-95
2023/04/01 08:59:15;;;;;;;10.48;7.25;;;11.40;99.90;;;;;;4959219;28;20035;-89
2023/04/01 09:02:26;;;;;;;13.88;8.38;;;11.50;99.90;;;;;;4938471;28;20027;-92
2023/04/01 09:05:33;;;;;;;11.75;7.30;;;11.50;99.90;;;;;;4937310;28;20494;-91
2023/04/01 09:08:25;;;;;;;6.93;4.85;;;11.30;99.90;;;;;;4951921;28;20038;-86
2023/04/01 09:11:10;;;;;;;3.55;3.25;;;11.30;99.90;;;;;;4937168;29;20026;-90
2023/04/01 09:14:12;;;;;;;8.18;2.95;;;11.30;99.90;;;;;;4948888;28;20041;-85
2023/04/01 09:17:12;;;;;;;2.05;1.52;;;11.40;99.90;;;;;;4932436;28;20122;-85
2023/04/01 09:20:11;;;;;;;1.52;1.42;;;11.30;99.90;;;;;;4945897;28;20069;-85
2023/04/01 09:22:56;;;;;;;2.10;1.88;;;11.40;99.90;;;;;;4939549;28;20019;-93
2023/04/01 09:25:56;;;;;;;3.17;2.30;;;11.50;99.90;;;;;;4929657;28;20027;-89
2023/04/01 09:28:42;;;;;;;2.47;1.95;;;11.40;99.90;;;;;;4952398;28;20029;-89
2023/04/01 09:31:07;;;;;;;3.13;2.45;;;11.50;99.90;;;;;;4933195;28;20033;-88
2023/04/01 09:34:12;;;;;;;3.85;2.70;;;11.70;99.90;;;;;;4931568;28;20031;-88
2023/04/01 09:36:51;;;;;;;3.83;2.53;;;11.80;99.90;;;;;;4932086;28;20042;-83
2023/04/01 09:39:19;;;;;;;3.45;3.05;;;11.80;99.90;;;;;;4920002;29;20031;-85
2023/04/01 09:42:06;;;;;;;231.95;76.55;;;11.80;99.90;;;;;;4918560;29;20399;-92
2023/04/01 09:45:02;;;;;;;4.03;3.38;;;11.80;99.90;;;;;;4912984;29;20035;-90
2023/04/01 09:47:40;;;;;;;3.53;2.17;;;11.90;99.90;;;;;;4920588;29;20027;-88
2023/04/01 09:51:06;;;;;;;3.80;3.15;;;12.00;99.90;;;;;;4922414;29;20086;-95
2023/04/01 09:53:48;;;;;;;2.30;2.10;;;12.20;99.90;;;;;;4935988;29;20030;-89
2023/04/01 09:56:42;;;;;;;1.90;1.80;;;12.30;99.90;;;;;;4920561;29;20237;-90
2023/04/01 09:59:49;;;;;;;38.60;9.18;;;12.40;99.90;;;;;;4922971;29;20495;-91
2023/04/01 10:02:24;;;;;;;7.93;6.97;;;12.80;99.90;;;;;;4935938;29;20078;-89
2023/04/01 10:04:55;;;;;;;2.90;2.70;;;12.80;99.90;;;;;;4917759;29;20028;-89
2023/04/01 10:07:56;;;;;;;2.55;2.25;;;12.70;99.90;;;;;;4916445;29;20046;-88
2023/04/01 10:10:40;;;;;;;2.45;2.25;;;12.50;99.90;;;;;;4934939;29;20035;-88
2023/04/01 10:13:20;;;;;;;2.55;2.20;;;12.50;99.90;;;;;;4934288;29;20467;-88
2023/04/01 10:15:50;;;;;;;2.20;2.00;;;12.30;99.90;;;;;;4922926;29;20069;-89
2023/04/01 10:18:19;;;;;;;1.88;1.77;;;12.20;99.90;;;;;;4932942;29;20067;-89
2023/04/01 10:21:06;;;;;;;3.63;1.77;;;12.10;99.90;;;;;;4922420;29;20678;-89
2023/04/01 10:23:47;;;;;;;2.28;2.08;;;12.10;99.90;;;;;;4933295;29;20423;-89
2023/04/01 10:26:35;;;;;;;1.90;1.80;;;12.20;99.90;;;;;;4920632;29;20028;-89
2023/04/01 10:29:39;;;;;;;3.15;2.40;;;12.10;99.90;;;;;;4935249;29;20023;-88
2023/04/01 10:32:33;;;;;;;2.40;2.20;;;12.00;99.90;;;;;;4940226;29;20028;-88
2023/04/01 10:35:01;;;;;;;;;;;11.90;99.90;;;;;;4933864;29;20479;-86
2023/04/01 10:37:57;;;;;;;2.42;2.22;;;11.90;99.90;;;;;;4928863;29;19998;-86
2023/04/01 10:40:35;;;;;;;3.10;2.80;;;12.00;99.90;;;;;;4913953;29;20118;-87
2023/04/01 10:43:14;;;;;;;4.88;3.30;;;11.90;99.90;;;;;;4913832;29;20031;-90
2023/04/01 10:46:11;;;;;;;4.80;3.30;;;11.90;99.90;;;;;;4922425;29;20030;-90
2023/04/01 10:48:49;;;;;;;4.15;3.60;;;11.70;99.90;;;;;;4926701;29;20025;-93
2023/04/01 10:51:31;;;;;;;5.05;3.78;;;11.60;99.90;;;;;;4926041;29;20015;-89
2023/04/01 10:54:35;;;;;;;3.47;3.13;;;11.70;99.90;;;;;;4936056;29;20052;-89
2023/04/01 10:57:33;;;;;;;3.40;2.88;;;11.80;99.90;;;;;;4913505;29;20043;-89
2023/04/01 11:00:11;;;;;;;2.75;2.55;;;11.80;99.90;;;;;;4931667;29;20027;-89
2023/04/01 11:03:19;;;;;;;3.05;2.33;;;12.00;99.90;;;;;;4931257;29;20190;-87
2023/04/01 11:06:24;;;;;;;2.17;2.08;;;12.10;99.90;;;;;;4934479;29;20024;-85
2023/04/01 11:09:31;;;;;;;2.60;2.40;;;12.10;99.90;;;;;;4935802;29;20034;-84
2023/04/01 11:12:08;;;;;;;7.32;3.28;;;12.10;99.90;;;;;;4877892;29;20050;-84
2023/04/01 11:15:04;;;;;;;4.72;4.15;;;12.10;99.90;;;;;;4933034;29;20056;-85
2023/04/01 11:17:53;;;;;;;4.88;4.00;;;12.10;99.90;;;;;;4931614;29;20043;-85
2023/04/01 11:21:13;;;;;;;4.20;3.80;;;12.10;99.90;;;;;;4870408;29;20115;-85
2023/04/01 11:24:02;;;;;;;4.47;4.00;;;12.00;99.90;;;;;;4896115;29;20599;-86
2023/04/01 11:26:33;;;;;;;5.78;4.43;;;11.90;99.90;;;;;;4923621;29;20090;-86
2023/04/01 11:29:04;;;;;;;6.05;3.97;;;11.90;99.90;;;;;;4915001;29;20034;-88
2023/04/01 11:31:54;;;;;;;7.05;4.20;;;11.90;99.90;;;;;;4919331;29;20143;-88
2023/04/01 11:34:57;;;;;;;4.50;4.10;;;11.90;99.90;;;;;;4916108;29;20028;-88
2023/04/01 11:37:46;;;;;;;7.72;4.43;;;11.80;99.90;;;;;;4920717;29;20031;-86
2023/04/01 11:40:26;;;;;;;4.30;3.90;;;11.80;99.90;;;;;;4919220;29;20032;-87
2023/04/01 11:43:11;;;;;;;8.20;4.80;;;11.70;99.90;;;;;;4925415;29;20024;-86
2023/04/01 11:45:56;;;;;;;7.75;5.30;;;11.70;99.90;;;;;;4918071;29;20484;-85
2023/04/01 11:48:46;;;;;;;7.50;5.45;;;11.70;99.90;;;;;;4930314;29;20027;-85
2023/04/01 11:51:43;;;;;;;9.07;5.88;;;11.70;99.90;;;;;;4930995;29;20031;-84
2023/04/01 11:54:38;;;;;;;10.13;5.63;;;11.70;99.90;;;;;;4911325;29;20024;-87
2023/04/01 11:57:25;;;;;;;10.85;6.25;;;11.60;99.90;;;;;;4936119;29;20103;-86
2023/04/01 12:00:16;;;;;;;9.15;6.32;;;11.60;99.90;;;;;;4919950;29;20104;-86
2023/04/01 12:02:47;;;;;;;8.73;6.72;;;11.50;99.90;;;;;;4931826;29;20024;-86
2023/04/01 12:05:58;;;;;;;9.57;7.38;;;11.50;99.90;;;;;;4926883;29;20043;-91
2023/04/01 12:08:42;;;;;;;10.07;6.70;;;11.40;99.90;;;;;;4924374;29;20241;-84
2023/04/01 12:11:35;;;;;;;10.30;6.68;;;11.40;99.90;;;;;;4931743;29;20028;-89
2023/04/01 12:14:06;;;;;;;10.43;6.70;;;11.50;99.90;;;;;;4930648;29;20048;-86
2023/04/01 12:16:39;;;;;;;11.63;6.85;;;11.50;99.90;;;;;;4933045;29;20051;-89
2023/04/01 12:19:43;;;;;;;9.55;7.10;;;11.60;99.90;;;;;;4937123;29;20040;-88
2023/04/01 12:22:45;;;;;;;11.23;7.68;;;11.60;99.90;;;;;;4941659;29;20091;-88
2023/04/01 12:25:43;;;;;;;10.35;7.30;;;11.60;99.90;;;;;;4938656;29;20062;-89
2023/04/01 12:28:57;;;;;;;13.63;8.05;;;11.60;99.90;;;;;;4941786;29;20059;-89
2023/04/01 12:31:41;;;;;;;11.95;7.97;;;11.60;99.90;;;;;;4937359;29;20028;-89
2023/04/01 12:34:41;;;;;;;14.55;7.60;;;11.60;99.90;;;;;;4927825;29;20024;-87
2023/04/01 12:37:26;;;;;;;12.27;8.18;;;11.70;99.90;;;;;;4933688;29;20277;-85
2023/04/01 12:40:02;;;;;;;13.88;8.20;;;11.60;99.90;;;;;;4949101;29;20091;-87
2023/04/01 12:42:31;;;;;;;10.75;7.20;;;11.60;99.90;;;;;;4939421;29;20024;-87
2023/04/01 12:45:19;;;;;;;11.88;7.35;;;11.60;99.90;;;;;;4931007;29;20028;-87
2023/04/01 12:48:21;;;;;;;10.05;6.80;;;11.60;99.90;;;;;;4933949;29;20078;-87
2023/04/01 12:51:06;;;;;;;11.90;7.72;;;11.60;99.90;;;;;;4940526;29;20023;-88
2023/04/01 12:54:10;;;;;;;10.88;6.85;;;11.50;99.90;;;;;;4908816;29;20039;-88
2023/04/01 12:57:34;;;;;;;9.88;5.80;;;11.50;99.90;;;;;;4922701;29;20365;-88
2023/04/01 13:00:29;;;;;;;9.88;6.78;;;11.60;99.90;;;;;;4891019;29;20400;-87
2023/04/01 13:03:20;;;;;;;8.13;6.50;;;11.60;99.90;;;;;;4885012;29;20050;-89
2023/04/01 13:06:15;;;;;;;11.35;6.88;;;11.50;99.90;;;;;;4916056;29;20363;-88
2023/04/01 13:09:04;;;;;;;9.82;6.75;;;11.60;99.90;;;;;;4918879;29;20086;-89
2023/04/01 13:11:40;;;;;;;10.32;6.93;;;11.60;99.90;;;;;;4908537;29;20028;-92
2023/04/01 13:14:06;;;;;;;13.18;8.13;;;11.70;99.90;;;;;;4920247;29;20032;-89
2023/04/01 13:16:47;;;;;;;11.40;7.50;;;11.70;99.90;;;;;;4933238;29;20367;-84
2023/04/01 13:19:34;;;;;;;11.05;7.60;;;11.90;99.90;;;;;;4931593;29;20098;-86
2023/04/01 13:22:23;;;;;;;11.45;7.95;;;12.00;99.90;;;;;;4933052;29;20043;-86
2023/04/01 13:24:58;;;;;;;12.48;7.63;;;12.10;99.90;;;;;;4929755;29;20260;-89
2023/04/01 13:27:30;;;;;;;9.90;7.63;;;12.20;99.90;;;;;;4908827;29;20024;-90
2023/04/01 13:30:30;;;;;;;11.65;8.68;;;12.10;99.90;;;;;;4904269;29;20023;-90
2023/04/01 13:32:55;;;;;;;11.45;7.90;;;12.10;99.90;;;;;;4922244;29;20032;-88
2023/04/01 13:35:52;;;;;;;11.77;8.23;;;12.00;99.90;;;;;;4932127;29;20031;-90
2023/04/01 13:38:20;;;;;;;11.35;8.27;;;12.10;99.90;;;;;;4916778;29;20020;-92
2023/04/01 13:41:05;;;;;;;13.88;8.32;;;12.20;99.90;;;;;;4936907;29;20098;-88
2023/04/01 13:43:34;;;;;;;11.55;8.68;;;12.20;99.90;;;;;;4934648;29;20016;-91
2023/04/01 13:46:06;;;;;;;11.57;8.38;;;12.30;99.90;;;;;;4919839;29;20024;-91
2023/04/01 13:49:05;;;;;;;10.60;8.52;;;12.40;99.90;;;;;;4936886;29;20059;-90